Terminal Aerodrome Forecast
Issued by NWS Greer, SC

Home | Current Version | Previous Version | Text Only | Print | Product List | Glossary On
Versions: 1 2 3 4 5 6 7 8 9 10 11 12 13
828
FTUS42 KGSP 291450 AAB
TAFGSP
TAF AMD
KGSP 291450Z 2915/3012 02008KT P6SM -SHRA SCT025 OVC050
     FM291800 03011G18KT P6SM VCSH OVC040
     FM292300 02010KT P6SM VCSH BKN050
     FM300500 35005KT P6SM SCT060 BKN150=

USA.gov is the U.S. government's official web portal to all federal, state and local government web resources and services.